Time;durP1;ratioP1;P1;durP2;ratioP2;P2;SDS_P1;SDS_P2;PMS_P1;PMS_P2;Temp;Humidity;BMP_temperature;BMP_pressure;BME280_temperature;BME280_humidity;BME280_pressure;Samples;Min_cycle;Max_cycle;Signal;HPM_P1;HPM_P2
2022/06/24 00:01:16;;;;;;;6.70;6.10;;;22.50;99.90;;;;;;5056352;28;20429;-82
2022/06/24 00:04:01;;;;;;;7.40;6.70;;;22.50;99.90;;;;;;5041924;28;20405;-82
2022/06/24 00:06:47;;;;;;;7.30;6.27;;;22.40;99.90;;;;;;5057356;28;20441;-82
2022/06/24 00:09:31;;;;;;;6.60;6.00;;;22.30;99.90;;;;;;5056595;28;20925;-83
2022/06/24 00:12:19;;;;;;;9.27;7.40;;;22.20;99.90;;;;;;5057035;28;20406;-83
2022/06/24 00:15:04;;;;;;;7.47;6.77;;;22.00;99.90;;;;;;5041753;28;20407;-82
2022/06/24 00:17:50;;;;;;;11.73;7.50;;;22.00;99.90;;;;;;5057494;28;20389;-82
2022/06/24 00:20:42;;;;;;;8.47;7.57;;;22.00;99.90;;;;;;5055882;28;20896;-83
2022/06/24 00:23:29;;;;;;;8.87;6.60;;;22.00;99.90;;;;;;5056483;28;20394;-83
2022/06/24 00:26:13;;;;;;;7.00;6.23;;;21.80;99.90;;;;;;5056700;28;20398;-83
2022/06/24 00:29:00;;;;;;;7.90;7.10;;;21.70;99.90;;;;;;5056980;28;20389;-83
2022/06/24 00:32:06;;;;;;;11.03;7.00;;;21.70;99.90;;;;;;5040033;28;20621;-83
2022/06/24 00:35:03;;;;;;;8.43;7.27;;;21.70;99.90;;;;;;5056333;28;20475;-83
2022/06/24 00:37:48;;;;;;;12.30;7.87;;;21.70;99.90;;;;;;5041098;28;20478;-83
2022/06/24 00:40:35;;;;;;;7.60;6.87;;;21.70;99.90;;;;;;5056853;28;20398;-83
2022/06/24 00:43:32;;;;;;;7.67;7.00;;;21.60;99.90;;;;;;5057029;28;20405;-82
2022/06/24 00:46:25;;;;;;;8.10;7.40;;;21.60;99.90;;;;;;5057454;28;20402;-83
2022/06/24 00:49:11;;;;;;;8.40;7.63;;;21.50;99.90;;;;;;5057987;28;20537;-83
2022/06/24 00:51:56;;;;;;;14.00;8.97;;;21.50;99.90;;;;;;5058578;28;20461;-82
2022/06/24 00:54:44;;;;;;;8.27;7.57;;;21.60;99.90;;;;;;5070573;28;20418;-82
2022/06/24 00:57:35;;;;;;;10.50;7.70;;;21.60;99.90;;;;;;5073382;28;20461;-83
2022/06/24 01:00:24;;;;;;;7.50;6.80;;;21.70;99.90;;;;;;5073446;28;20398;-82
2022/06/24 01:03:08;;;;;;;8.13;6.90;;;21.60;99.90;;;;;;5074849;28;20422;-81
2022/06/24 01:05:53;;;;;;;10.13;7.20;;;21.70;99.90;;;;;;5075116;28;20378;-82
2022/06/24 01:08:38;;;;;;;7.70;7.00;;;21.80;99.90;;;;;;5066095;28;20462;-82
2022/06/24 01:11:25;;;;;;;7.97;7.07;;;21.70;99.90;;;;;;5042863;28;20457;-83
2022/06/24 01:14:12;;;;;;;8.80;7.90;;;21.80;99.90;;;;;;5056532;28;20445;-83
2022/06/24 01:16:56;;;;;;;7.90;7.10;;;21.80;99.90;;;;;;5057843;28;20410;-83
2022/06/24 01:19:41;;;;;;;10.60;8.00;;;21.80;99.90;;;;;;5058652;28;20393;-83
2022/06/24 01:22:26;;;;;;;8.70;7.77;;;21.90;99.90;;;;;;5057818;28;20405;-83
2022/06/24 01:25:12;;;;;;;8.47;7.67;;;22.00;99.90;;;;;;5041473;28;20433;-83
2022/06/24 01:27:56;;;;;;;7.40;6.80;;;22.00;99.90;;;;;;5041711;28;20914;-83
2022/06/24 01:30:41;;;;;;;8.77;8.10;;;22.10;99.90;;;;;;5056148;28;20473;-83
2022/06/24 01:33:26;;;;;;;8.00;7.20;;;22.10;99.90;;;;;;5058328;28;20389;-83
2022/06/24 01:36:11;;;;;;;7.60;7.07;;;22.20;99.90;;;;;;5059164;28;20440;-83
2022/06/24 01:38:56;;;;;;;8.93;8.13;;;22.20;99.90;;;;;;5060142;28;20420;-83
2022/06/24 01:41:41;;;;;;;7.70;7.07;;;22.30;99.90;;;;;;5060240;28;20394;-82
2022/06/24 01:44:26;;;;;;;8.17;7.00;;;22.30;99.90;;;;;;5044461;28;20440;-83
2022/06/24 01:47:11;;;;;;;8.60;7.40;;;22.30;99.90;;;;;;5060016;28;20520;-83
2022/06/24 01:49:56;;;;;;;8.13;7.40;;;22.40;99.90;;;;;;5044616;28;20463;-83
2022/06/24 01:52:41;;;;;;;9.10;8.27;;;22.50;99.90;;;;;;5059498;28;20394;-83
2022/06/24 01:55:26;;;;;;;7.77;7.07;;;22.60;99.90;;;;;;5061051;28;20432;-82
2022/06/24 01:58:10;;;;;;;8.87;8.10;;;22.50;99.90;;;;;;5045448;28;20452;-83
2022/06/24 02:00:56;;;;;;;8.30;7.00;;;22.50;99.90;;;;;;5059665;28;20397;-83
2022/06/24 02:03:41;;;;;;;8.47;7.27;;;22.40;99.90;;;;;;5060068;28;20398;-83
2022/06/24 02:06:25;;;;;;;8.17;6.97;;;22.30;99.90;;;;;;5060279;28;20404;-83
2022/06/24 02:09:10;;;;;;;7.33;6.77;;;22.20;99.90;;;;;;5059630;28;20894;-83
2022/06/24 02:14:53;;;;;;;6.10;5.60;;;22.30;99.90;;;;;;5059806;28;20476;-83
2022/06/24 02:17:38;;;;;;;6.10;4.97;;;22.30;99.90;;;;;;5045308;28;20394;-83
2022/06/24 02:20:23;;;;;;;6.93;5.00;;;22.30;99.90;;;;;;5060494;28;20911;-83
2022/06/24 02:23:08;;;;;;;4.33;3.93;;;22.30;99.90;;;;;;5062270;28;20486;-83
2022/06/24 02:25:54;;;;;;;5.60;4.50;;;22.30;99.90;;;;;;5078634;28;20389;-82
2022/06/24 02:28:39;;;;;;;3.50;3.23;;;22.30;99.90;;;;;;5078755;28;20457;-82
2022/06/24 02:31:24;;;;;;;9.53;3.37;;;22.30;99.90;;;;;;5078063;28;20457;-83
2022/06/24 02:34:09;;;;;;;5.23;3.53;;;22.30;99.90;;;;;;5078423;28;20454;-82
2022/06/24 02:36:54;;;;;;;8.60;3.30;;;22.30;99.90;;;;;;5078756;28;20410;-81
2022/06/24 02:39:39;;;;;;;3.00;2.70;;;22.30;99.90;;;;;;5062518;28;20453;-83
2022/06/24 02:42:25;;;;;;;7.17;3.57;;;22.20;99.90;;;;;;5059211;28;20390;-82
2022/06/24 02:45:10;;;;;;;3.50;3.20;;;22.30;99.90;;;;;;5044043;28;20394;-82
2022/06/24 02:47:55;;;;;;;3.27;2.93;;;22.30;99.90;;;;;;5059033;28;20776;-82
2022/06/24 02:50:59;;;;;;;3.97;2.83;;;22.30;99.90;;;;;;5042620;28;20484;-82
2022/06/24 02:53:44;;;;;;;3.33;2.60;;;22.10;99.90;;;;;;5058096;28;20390;-83
2022/06/24 02:56:29;;;;;;;3.73;2.60;;;22.10;99.90;;;;;;5057430;28;21699;-82
2022/06/24 02:59:14;;;;;;;3.83;3.40;;;22.00;99.90;;;;;;5042312;28;20964;-83
2022/06/24 03:01:59;;;;;;;12.97;2.50;;;21.90;99.90;;;;;;5057328;28;20413;-82
2022/06/24 03:04:43;;;;;;;5.03;3.07;;;21.90;99.90;;;;;;5057608;28;20481;-82
2022/06/24 03:07:28;;;;;;;4.53;3.57;;;21.80;99.90;;;;;;5057649;28;20441;-82
2022/06/24 03:10:13;;;;;;;10.13;3.83;;;21.80;99.90;;;;;;5057544;28;20820;-82
2022/06/24 03:12:58;;;;;;;3.13;2.83;;;21.60;99.90;;;;;;5057899;28;20402;-83
2022/06/24 03:15:43;;;;;;;4.30;3.90;;;21.50;99.90;;;;;;5057801;28;20434;-83
2022/06/24 03:18:28;;;;;;;5.37;4.73;;;21.40;99.90;;;;;;5057163;28;20921;-82
2022/06/24 03:21:13;;;;;;;6.27;4.27;;;21.40;99.90;;;;;;5057013;28;20470;-82
2022/06/24 03:23:58;;;;;;;5.73;3.70;;;21.30;99.90;;;;;;5057050;28;20448;-82
2022/06/24 03:26:43;;;;;;;15.23;4.30;;;21.30;99.90;;;;;;5056158;28;20390;-82
2022/06/24 03:29:28;;;;;;;5.30;4.80;;;21.30;99.90;;;;;;5056538;28;20401;-82
2022/06/24 03:32:12;;;;;;;4.57;4.17;;;21.40;99.90;;;;;;5041349;28;20390;-82
2022/06/24 03:34:57;;;;;;;6.57;5.17;;;21.30;99.90;;;;;;5055704;28;20394;-83
2022/06/24 03:37:42;;;;;;;5.93;4.70;;;21.10;99.90;;;;;;5056980;28;20382;-82
2022/06/24 03:40:26;;;;;;;6.60;4.20;;;21.20;99.90;;;;;;5041704;28;20766;-82
2022/06/24 03:43:11;;;;;;;5.30;4.83;;;21.20;99.90;;;;;;5057563;28;20410;-83
2022/06/24 03:46:03;;;;;;;7.70;4.23;;;21.40;99.90;;;;;;5056194;28;20425;-83
2022/06/24 03:48:47;;;;;;;4.47;3.77;;;21.30;99.90;;;;;;5034328;28;20516;-82
2022/06/24 03:51:33;;;;;;;9.27;4.53;;;21.40;99.90;;;;;;5040991;28;20468;-83
2022/06/24 03:54:18;;;;;;;4.30;3.73;;;21.50;99.90;;;;;;5056397;28;20882;-83
2022/06/24 03:57:04;;;;;;;4.00;3.70;;;21.40;99.90;;;;;;5055891;28;20464;-83
2022/06/24 03:59:48;;;;;;;4.40;4.00;;;21.60;99.90;;;;;;5041362;28;20413;-83
2022/06/24 04:02:33;;;;;;;6.10;3.80;;;21.70;99.90;;;;;;5056425;28;20427;-83
2022/06/24 04:05:18;;;;;;;5.43;3.03;;;21.80;99.90;;;;;;5056462;28;20763;-83
2022/06/24 04:08:02;;;;;;;3.60;3.23;;;21.60;99.90;;;;;;5026363;28;20410;-82
2022/06/24 04:10:47;;;;;;;2.57;2.37;;;21.60;99.90;;;;;;5036407;28;20490;-83
2022/06/24 04:13:32;;;;;;;3.70;2.83;;;21.60;99.90;;;;;;5036246;28;20391;-83
2022/06/24 04:16:17;;;;;;;3.03;2.50;;;21.70;99.90;;;;;;5048273;28;20433;-83
2022/06/24 04:19:02;;;;;;;3.23;1.90;;;21.80;99.90;;;;;;5056533;28;20421;-83
2022/06/24 04:21:46;;;;;;;4.80;2.10;;;21.60;99.90;;;;;;5055812;28;20481;-83
2022/06/24 04:24:31;;;;;;;4.50;2.40;;;21.40;99.90;;;;;;5040711;28;20410;-83
2022/06/24 04:27:16;;;;;;;3.00;2.43;;;21.30;99.90;;;;;;5056091;28;20406;-83
2022/06/24 04:30:04;;;;;;;3.23;2.20;;;21.40;99.90;;;;;;5056820;28;20397;-82
2022/06/24 04:32:50;;;;;;;13.00;2.63;;;21.50;99.90;;;;;;5043100;28;20745;-82
2022/06/24 04:35:35;;;;;;;3.67;1.70;;;21.50;99.90;;;;;;5058032;28;20458;-83
2022/06/24 04:38:19;;;;;;;2.53;2.33;;;21.60;99.90;;;;;;5057989;28;20454;-83
2022/06/24 04:41:13;;;;;;;2.23;2.00;;;21.80;99.90;;;;;;5057491;28;20401;-83
2022/06/24 04:43:57;;;;;;;4.47;2.23;;;21.80;99.90;;;;;;5057666;28;20385;-83
2022/06/24 04:46:42;;;;;;;2.60;2.10;;;21.80;99.90;;;;;;5014974;28;20724;-83
2022/06/24 04:49:27;;;;;;;2.70;2.50;;;21.40;99.90;;;;;;5057528;28;20394;-83
2022/06/24 04:52:12;;;;;;;6.30;3.80;;;21.20;99.90;;;;;;5041405;28;20580;-83
2022/06/24 04:54:56;;;;;;;3.93;2.17;;;21.10;99.90;;;;;;5057934;28;20394;-83
2022/06/24 04:57:41;;;;;;;2.57;2.20;;;21.10;99.90;;;;;;5057329;28;20446;-83
2022/06/24 05:00:26;;;;;;;2.83;2.63;;;21.20;99.90;;;;;;5053912;28;20434;-83
2022/06/24 05:03:11;;;;;;;2.40;2.17;;;21.40;99.90;;;;;;5056643;28;20441;-83
2022/06/24 05:05:57;;;;;;;5.43;2.97;;;21.10;99.90;;;;;;5060434;28;20526;-83
2022/06/24 05:08:42;;;;;;;7.93;2.50;;;20.80;99.90;;;;;;5058515;28;20457;-83
2022/06/24 05:11:28;;;;;;;3.93;2.53;;;20.90;99.90;;;;;;5035003;28;20460;-83
2022/06/24 05:14:13;;;;;;;6.60;2.70;;;20.70;99.90;;;;;;5042010;28;20417;-81
2022/06/24 05:16:58;;;;;;;5.60;3.10;;;20.80;99.90;;;;;;5055994;28;20417;-81
2022/06/24 05:19:43;;;;;;;2.70;2.47;;;20.50;99.90;;;;;;5033638;28;20495;-81
2022/06/24 05:22:27;;;;;;;4.50;2.17;;;20.50;99.90;;;;;;5053906;28;20488;-82
2022/06/24 05:25:12;;;;;;;3.03;2.50;;;20.70;99.90;;;;;;5043213;28;20424;-83
2022/06/24 05:27:56;;;;;;;5.90;2.30;;;20.80;99.90;;;;;;5059167;28;20452;-83
2022/06/24 05:30:41;;;;;;;4.77;2.53;;;20.80;99.90;;;;;;5060603;28;20445;-83
2022/06/24 05:33:29;;;;;;;9.43;3.50;;;21.00;99.90;;;;;;5063822;28;20578;-83
2022/06/24 05:36:14;;;;;;;5.10;2.47;;;21.00;99.90;;;;;;5057011;28;20822;-83
2022/06/24 05:39:01;;;;;;;4.07;2.40;;;20.90;99.90;;;;;;5066007;28;20452;-83
2022/06/24 05:41:45;;;;;;;5.30;2.47;;;20.90;99.90;;;;;;5060878;28;20468;-83
2022/06/24 05:44:30;;;;;;;4.90;2.80;;;21.00;99.90;;;;;;5033528;28;20794;-82
2022/06/24 05:47:17;;;;;;;2.20;2.00;;;20.90;99.90;;;;;;5042914;28;20424;-81
2022/06/24 05:50:01;;;;;;;4.07;2.50;;;20.90;99.90;;;;;;5059237;28;21012;-82
2022/06/24 05:55:48;;;;;;;6.00;3.80;;;20.10;99.90;;;;;;5046533;28;20480;-83
2022/06/24 05:58:33;;;;;;;6.50;2.50;;;19.90;99.90;;;;;;5054480;28;20457;-83
2022/06/24 06:01:18;;;;;;;7.60;2.97;;;19.80;99.90;;;;;;5042524;28;20489;-83
2022/06/24 06:04:04;;;;;;;2.93;2.60;;;19.90;99.90;;;;;;5042227;28;20433;-81
2022/06/24 06:06:48;;;;;;;4.70;3.00;;;19.70;99.90;;;;;;5028424;28;20510;-84
2022/06/24 06:09:35;;;;;;;6.67;3.47;;;20.00;99.90;;;;;;5008769;28;20458;-81
2022/06/24 06:12:20;;;;;;;7.77;2.40;;;20.10;99.90;;;;;;4997768;28;20598;-83
2022/06/24 06:15:06;;;;;;;7.30;2.70;;;20.30;99.90;;;;;;5007042;28;20443;-83
2022/06/24 06:17:50;;;;;;;2.73;2.50;;;20.20;99.90;;;;;;5002252;28;20451;-83
2022/06/24 06:20:36;;;;;;;3.53;2.80;;;20.40;99.90;;;;;;5023634;28;20526;-82
2022/06/24 06:23:20;;;;;;;2.83;2.50;;;20.40;99.90;;;;;;5018874;28;20431;-83
2022/06/24 06:26:06;;;;;;;3.67;2.87;;;20.40;99.90;;;;;;4996749;28;20567;-83
2022/06/24 06:28:51;;;;;;;3.27;2.97;;;20.60;99.90;;;;;;5011507;28;20450;-83
2022/06/24 06:31:38;;;;;;;3.70;2.60;;;20.70;99.90;;;;;;4996978;28;20519;-83
2022/06/24 06:37:37;;;;;;;3.60;3.20;;;20.50;99.90;;;;;;5015911;28;20441;-82
2022/06/24 06:40:22;;;;;;;8.83;3.40;;;20.50;99.90;;;;;;5034162;28;20576;-83
2022/06/24 06:43:07;;;;;;;5.53;2.57;;;20.80;99.90;;;;;;5034038;28;20473;-81
2022/06/24 06:45:52;;;;;;;5.40;2.80;;;20.50;99.90;;;;;;5050461;28;20578;-83
2022/06/24 06:48:39;;;;;;;4.00;3.20;;;20.80;99.90;;;;;;5036114;28;20549;-83
2022/06/24 06:51:23;;;;;;;5.00;2.67;;;21.00;99.90;;;;;;5052048;28;22377;-81
2022/06/24 06:54:08;;;;;;;3.33;2.80;;;21.10;99.90;;;;;;5061678;28;20509;-82
2022/06/24 06:56:53;;;;;;;2.50;2.07;;;21.10;99.90;;;;;;5054663;28;21000;-81
2022/06/24 06:59:38;;;;;;;8.73;2.83;;;21.20;99.90;;;;;;5059734;28;20417;-82
2022/06/24 07:02:23;;;;;;;9.23;2.67;;;21.10;99.90;;;;;;5056253;28;20774;-83
2022/06/24 07:05:08;;;;;;;4.83;2.90;;;21.30;99.90;;;;;;5068057;28;21350;-83
2022/06/24 07:07:52;;;;;;;3.60;3.30;;;21.50;99.90;;;;;;5052752;28;20464;-83
2022/06/24 07:10:38;;;;;;;1.97;1.67;;;21.60;99.90;;;;;;5048909;28;20485;-83
2022/06/24 07:13:23;;;;;;;2.80;2.20;;;21.40;99.90;;;;;;5047499;28;20469;-83
2022/06/24 07:16:09;;;;;;;3.07;2.77;;;21.40;99.90;;;;;;5057062;28;20454;-83
2022/06/24 07:18:54;;;;;;;3.13;2.40;;;21.70;99.90;;;;;;5054035;28;20487;-83
2022/06/24 07:21:38;;;;;;;4.30;2.20;;;21.80;99.90;;;;;;5043930;28;20461;-83
2022/06/24 07:24:23;;;;;;;2.03;1.93;;;21.90;99.90;;;;;;5055262;28;20470;-83
2022/06/24 07:27:10;;;;;;;6.83;2.17;;;22.20;99.90;;;;;;5052965;28;20429;-81
2022/06/24 07:29:58;;;;;;;2.43;2.10;;;21.50;99.90;;;;;;5015143;28;20482;-83
2022/06/24 07:32:42;;;;;;;3.60;2.70;;;21.50;99.90;;;;;;5050361;28;20604;-82
2022/06/24 07:35:27;;;;;;;6.00;2.20;;;21.50;99.90;;;;;;5035701;28;20430;-82
2022/06/24 07:38:12;;;;;;;4.10;2.70;;;21.40;99.90;;;;;;5050057;28;20469;-83
2022/06/24 07:40:56;;;;;;;4.43;2.43;;;21.70;99.90;;;;;;5058023;28;20523;-82
2022/06/24 07:43:41;;;;;;;3.03;2.33;;;21.80;99.90;;;;;;5050621;28;20965;-83
2022/06/24 07:46:26;;;;;;;8.40;2.57;;;22.00;99.90;;;;;;5039465;28;21387;-82
2022/06/24 07:49:11;;;;;;;2.00;1.90;;;22.20;99.90;;;;;;5052669;28;20842;-83
2022/06/24 07:51:56;;;;;;;2.73;1.97;;;22.00;99.90;;;;;;5061049;28;20872;-82
2022/06/24 07:54:41;;;;;;;3.67;2.10;;;22.10;99.90;;;;;;5038276;28;20448;-81
2022/06/24 07:57:25;;;;;;;2.60;2.00;;;22.10;99.90;;;;;;5037861;28;20511;-82
2022/06/24 08:00:13;;;;;;;2.57;2.37;;;22.20;99.90;;;;;;5046405;28;20505;-81
2022/06/24 08:02:58;;;;;;;2.23;1.97;;;22.10;99.90;;;;;;5049128;28;20444;-83
2022/06/24 08:05:42;;;;;;;5.17;3.23;;;22.30;99.90;;;;;;5049235;28;20433;-83
2022/06/24 08:08:27;;;;;;;3.50;3.20;;;22.10;99.90;;;;;;5049446;28;20524;-82
2022/06/24 08:11:11;;;;;;;2.33;1.90;;;22.30;99.90;;;;;;5049286;28;20509;-84
2022/06/24 08:13:56;;;;;;;2.40;2.13;;;22.00;99.90;;;;;;5050802;28;20424;-83
2022/06/24 08:16:43;;;;;;;3.60;2.53;;;22.00;99.90;;;;;;5036287;28;20886;-81
2022/06/24 08:19:27;;;;;;;3.33;2.77;;;22.50;99.90;;;;;;5054921;28;20419;-82
2022/06/24 08:22:12;;;;;;;2.93;2.13;;;22.60;99.90;;;;;;5053299;28;20748;-82
2022/06/24 08:24:59;;;;;;;2.80;2.00;;;22.40;99.90;;;;;;5058842;28;20429;-83
2022/06/24 08:27:44;;;;;;;2.90;2.40;;;22.60;99.90;;;;;;5042268;28;20441;-83
2022/06/24 08:30:34;;;;;;;2.77;2.43;;;22.00;99.90;;;;;;5038793;28;20457;-83
2022/06/24 08:33:19;;;;;;;6.83;3.40;;;22.50;99.90;;;;;;5034700;28;20512;-80
2022/06/24 08:36:04;;;;;;;2.50;2.30;;;22.80;99.90;;;;;;5051365;28;20480;-81
2022/06/24 08:38:49;;;;;;;5.00;2.40;;;22.90;99.90;;;;;;5046513;28;20901;-80
2022/06/24 08:41:34;;;;;;;3.90;2.50;;;23.00;99.90;;;;;;5034359;28;21929;-83
2022/06/24 08:44:18;;;;;;;3.40;3.10;;;23.20;99.90;;;;;;5030622;28;20421;-83
2022/06/24 08:47:04;;;;;;;2.40;2.00;;;22.80;99.90;;;;;;5049851;28;20461;-82
2022/06/24 08:49:49;;;;;;;3.77;2.30;;;23.10;99.90;;;;;;5033087;28;20469;-83
2022/06/24 08:52:33;;;;;;;2.93;1.90;;;23.10;99.90;;;;;;5031719;28;20464;-82
2022/06/24 08:55:19;;;;;;;4.63;2.00;;;23.10;99.90;;;;;;5030753;28;20445;-82
2022/06/24 08:58:12;;;;;;;4.53;2.37;;;23.80;99.90;;;;;;5040508;28;20458;-82
2022/06/24 09:00:58;;;;;;;4.27;2.60;;;23.70;99.90;;;;;;5028086;28;20454;-81
2022/06/24 09:03:44;;;;;;;7.13;6.47;;;23.20;99.90;;;;;;5000602;28;20565;-82
2022/06/24 09:06:48;;;;;;;3.30;2.60;;;23.40;99.90;;;;;;4991160;28;20802;-79
2022/06/24 09:09:32;;;;;;;5.30;2.10;;;23.10;99.90;;;;;;4992104;28;21288;-87
2022/06/24 09:12:17;;;;;;;2.40;2.20;;;23.50;99.90;;;;;;4975815;28;20503;-86
2022/06/24 09:15:04;;;;;;;6.33;2.70;;;23.50;99.90;;;;;;4957114;28;20538;-86
2022/06/24 09:17:49;;;;;;;2.60;2.40;;;23.20;99.90;;;;;;4956741;28;20553;-84
2022/06/24 09:20:34;;;;;;;4.33;2.67;;;23.50;99.90;;;;;;4953370;28;20794;-86
2022/06/24 09:23:19;;;;;;;3.20;2.40;;;23.90;99.90;;;;;;4969556;28;20480;-86
2022/06/24 09:26:03;;;;;;;8.20;2.97;;;23.90;99.90;;;;;;4972751;28;20504;-84
2022/06/24 09:28:56;;;;;;;4.60;2.27;;;23.70;99.90;;;;;;4968908;28;20444;-84
2022/06/24 09:31:41;;;;;;;5.30;3.00;;;23.70;99.90;;;;;;4954265;28;20483;-85
2022/06/24 09:34:25;;;;;;;2.87;2.60;;;23.90;99.90;;;;;;4967297;28;20516;-85
2022/06/24 09:37:10;;;;;;;4.93;3.00;;;24.20;99.90;;;;;;4967395;28;20445;-86
2022/06/24 09:39:55;;;;;;;4.07;3.10;;;24.10;99.90;;;;;;4970735;28;20603;-86
2022/06/24 09:42:39;;;;;;;5.83;3.30;;;24.20;99.90;;;;;;4958259;28;20949;-86
2022/06/24 09:45:26;;;;;;;6.53;3.90;;;23.90;99.90;;;;;;4994716;28;20501;-84
2022/06/24 09:48:29;;;;;;;3.90;2.50;;;23.90;99.90;;;;;;5033190;28;20441;-86
2022/06/24 09:51:16;;;;;;;4.30;2.33;;;23.70;99.90;;;;;;5002793;28;20505;-85
2022/06/24 09:54:01;;;;;;;3.53;2.40;;;23.80;99.90;;;;;;5034209;28;20422;-86
2022/06/24 09:56:47;;;;;;;4.17;2.43;;;24.00;99.90;;;;;;5018613;28;20477;-85
2022/06/24 10:02:35;;;;;;;3.47;2.47;;;24.20;99.90;;;;;;5036062;28;20457;-85
2022/06/24 10:05:20;;;;;;;5.23;3.20;;;24.30;99.90;;;;;;5039816;28;20421;-85
2022/06/24 10:08:06;;;;;;;5.77;3.07;;;24.80;99.90;;;;;;5040024;28;20426;-86
2022/06/24 10:10:52;;;;;;;7.37;3.03;;;24.70;99.90;;;;;;5021047;28;20997;-86
2022/06/24 10:13:37;;;;;;;5.13;3.00;;;24.80;99.90;;;;;;5041014;28;20457;-86
2022/06/24 10:16:23;;;;;;;4.93;3.13;;;25.30;99.90;;;;;;5036092;28;20422;-87
2022/06/24 10:19:13;;;;;;;2.60;2.20;;;25.60;99.90;;;;;;5037739;28;20990;-86
2022/06/24 10:21:57;;;;;;;5.13;2.50;;;24.70;99.90;;;;;;5034806;28;20955;-86
2022/06/24 10:24:43;;;;;;;3.10;2.80;;;25.00;99.90;;;;;;5033589;28;20477;-86
2022/06/24 10:28:01;;;;;;;4.40;3.20;;;24.70;99.90;;;;;;5024394;28;20429;-87
2022/06/24 10:30:55;;;;;;;8.30;3.67;;;25.60;99.90;;;;;;5037161;28;20461;-86
2022/06/24 10:33:40;;;;;;;3.83;2.40;;;25.30;99.90;;;;;;5039249;28;20449;-87
2022/06/24 10:36:32;;;;;;;3.10;2.50;;;25.60;99.90;;;;;;5020916;28;20469;-83
2022/06/24 10:39:20;;;;;;;2.57;2.23;;;26.10;99.90;;;;;;4969972;28;20523;-83
2022/06/24 10:42:07;;;;;;;5.90;2.67;;;26.30;99.90;;;;;;4959698;28;20420;-81
2022/06/24 10:44:56;;;;;;;2.50;2.30;;;26.30;99.90;;;;;;5010209;28;20408;-81
2022/06/24 10:47:43;;;;;;;2.33;2.13;;;26.50;99.90;;;;;;4956560;28;20548;-83
2022/06/24 10:50:28;;;;;;;3.07;2.43;;;26.60;99.90;;;;;;4984839;28;20491;-83
2022/06/24 10:53:12;;;;;;;2.57;2.20;;;26.00;99.90;;;;;;4985584;28;20425;-82
2022/06/24 10:55:57;;;;;;;2.93;2.10;;;26.00;99.90;;;;;;5004307;28;20486;-82
2022/06/24 10:58:41;;;;;;;9.20;2.70;;;26.70;99.90;;;;;;4989216;28;20522;-83
2022/06/24 11:01:26;;;;;;;4.67;2.73;;;27.10;99.90;;;;;;5014205;28;20849;-81
2022/06/24 11:04:15;;;;;;;2.40;2.20;;;27.20;99.90;;;;;;4951179;28;20453;-81
2022/06/24 11:07:15;;;;;;;3.40;2.50;;;27.10;99.90;;;;;;4975371;28;20437;-84
2022/06/24 11:10:00;;;;;;;2.73;2.53;;;26.60;99.90;;;;;;4980239;28;20442;-83
2022/06/24 11:12:49;;;;;;;2.50;2.30;;;26.70;99.90;;;;;;4995291;28;20497;-83
2022/06/24 11:15:37;;;;;;;2.73;2.50;;;26.60;99.90;;;;;;5003668;28;20501;-84
2022/06/24 11:18:26;;;;;;;7.47;2.73;;;26.60;99.90;;;;;;5007466;28;20822;-83
2022/06/24 11:21:17;;;;;;;4.53;2.73;;;26.60;99.90;;;;;;4985578;28;20837;-84
2022/06/24 11:24:02;;;;;;;4.17;2.67;;;27.10;99.90;;;;;;5003138;28;20446;-82
2022/06/24 11:27:06;;;;;;;4.57;3.00;;;26.90;99.90;;;;;;4994257;28;20426;-83
2022/06/24 11:29:56;;;;;;;3.40;2.80;;;27.10;99.90;;;;;;4969577;28;20514;-83
2022/06/24 11:32:59;;;;;;;5.30;2.53;;;27.20;99.90;;;;;;4974678;28;20439;-84
2022/06/24 11:35:47;;;;;;;2.80;2.37;;;27.50;99.90;;;;;;4976200;28;20435;-83
2022/06/24 11:38:36;;;;;;;2.33;2.00;;;26.40;99.90;;;;;;4972703;28;20444;-84
2022/06/24 11:41:23;;;;;;;5.60;2.37;;;26.80;99.90;;;;;;4971329;28;20482;-81
2022/06/24 11:44:07;;;;;;;2.97;2.40;;;27.40;99.90;;;;;;4990739;28;20435;-83
2022/06/24 11:46:52;;;;;;;3.03;2.17;;;27.40;99.90;;;;;;5006372;28;20595;-81
2022/06/24 11:49:42;;;;;;;2.40;2.20;;;27.70;99.90;;;;;;5013640;28;20441;-85
2022/06/24 11:52:27;;;;;;;2.43;2.23;;;27.60;99.90;;;;;;5007750;28;20473;-87
2022/06/24 11:55:28;;;;;;;4.17;2.20;;;27.40;99.90;;;;;;5006111;28;20435;-87
2022/06/24 11:58:18;;;;;;;3.03;2.20;;;28.20;99.90;;;;;;4982069;28;20524;-85
2022/06/24 12:01:02;;;;;;;3.77;2.47;;;28.80;99.90;;;;;;5016389;28;20457;-85
2022/06/24 12:03:50;;;;;;;2.13;1.80;;;28.80;99.90;;;;;;5011052;28;20425;-86
2022/06/24 12:06:37;;;;;;;6.50;2.90;;;28.70;99.90;;;;;;5028104;28;20511;-85
2022/06/24 12:09:22;;;;;;;2.43;2.10;;;28.90;99.90;;;;;;5002534;28;20437;-84
2022/06/24 12:12:10;;;;;;;2.30;1.87;;;28.70;99.90;;;;;;5031187;28;20475;-86
2022/06/24 12:14:55;;;;;;;6.53;2.27;;;28.60;99.90;;;;;;5001062;28;20422;-86
2022/06/24 12:17:51;;;;;;;3.10;2.10;;;28.50;99.90;;;;;;5032277;28;20418;-84
2022/06/24 12:20:36;;;;;;;3.53;3.23;;;28.60;99.90;;;;;;5032396;28;20438;-86
2022/06/24 12:23:22;;;;;;;4.97;2.80;;;27.80;99.90;;;;;;5013583;28;20426;-86
2022/06/24 12:26:19;;;;;;;4.23;2.17;;;27.70;99.90;;;;;;5031854;28;20425;-86
2022/06/24 12:29:08;;;;;;;1.90;1.80;;;27.80;99.90;;;;;;5019064;28;20518;-84
2022/06/24 12:31:54;;;;;;;5.30;2.60;;;27.60;99.90;;;;;;5033463;28;20465;-86
2022/06/24 12:34:41;;;;;;;3.27;2.10;;;28.10;99.90;;;;;;5009790;28;20494;-84
2022/06/24 12:37:25;;;;;;;2.13;1.93;;;28.60;99.90;;;;;;5019574;28;20425;-86
2022/06/24 12:40:22;;;;;;;2.50;2.30;;;28.80;99.90;;;;;;5033370;28;20779;-85
2022/06/24 12:43:12;;;;;;;2.10;2.00;;;29.20;99.90;;;;;;5034500;28;20858;-85
2022/06/24 12:45:57;;;;;;;2.10;2.00;;;28.50;99.90;;;;;;5014433;28;20418;-84
2022/06/24 12:51:43;;;;;;;3.43;2.63;;;28.30;99.90;;;;;;5022398;28;21032;-87
2022/06/24 12:54:28;;;;;;;2.40;2.20;;;28.70;99.90;;;;;;5015782;28;20981;-86
2022/06/24 12:57:13;;;;;;;2.83;2.40;;;29.40;99.90;;;;;;5034686;28;20485;-85
2022/06/24 13:00:08;;;;;;;4.70;2.08;;;30.70;96.20;;;;;;5030269;28;20699;-84
2022/06/24 13:02:56;;;;;;;1.90;1.80;;;31.60;92.00;;;;;;5018396;28;20191;-85
2022/06/24 13:05:41;;;;;;;2.78;2.58;;;31.30;91.90;;;;;;5035879;28;20187;-86
2022/06/24 13:08:27;;;;;;;2.25;2.05;;;30.90;93.40;;;;;;4991139;28;20203;-86
2022/06/24 13:11:15;;;;;;;5.45;3.00;;;30.20;93.80;;;;;;5010547;28;20201;-86
2022/06/24 13:14:01;;;;;;;2.83;2.50;;;30.60;96.40;;;;;;5037009;28;20644;-85
2022/06/24 13:16:45;;;;;;;4.13;2.05;;;30.40;94.70;;;;;;5032443;28;20183;-86
2022/06/24 13:19:30;;;;;;;3.55;1.90;;;29.70;95.40;;;;;;5021582;28;20231;-86
2022/06/24 13:22:15;;;;;;;4.17;2.20;;;29.50;96.50;;;;;;5018934;28;20651;-85
2022/06/24 13:25:05;;;;;;;3.77;1.90;;;29.10;97.50;;;;;;5030027;28;20446;-83
2022/06/24 13:27:50;;;;;;;2.03;1.83;;;28.70;99.60;;;;;;5038144;28;20505;-86
2022/06/24 13:30:35;;;;;;;3.30;2.30;;;28.50;99.70;;;;;;5023963;28;20500;-85
2022/06/24 13:33:21;;;;;;;6.37;2.07;;;28.30;99.90;;;;;;5041719;28;20429;-85
2022/06/24 13:36:12;;;;;;;3.47;2.80;;;28.60;99.90;;;;;;5040965;28;20463;-85
2022/06/24 13:38:57;;;;;;;3.50;2.20;;;29.40;99.10;;;;;;5018688;28;20446;-84
2022/06/24 13:42:03;;;;;;;2.67;2.47;;;29.20;97.40;;;;;;5031899;28;20497;-84
2022/06/24 13:44:47;;;;;;;3.03;2.80;;;30.10;96.60;;;;;;4971348;28;20440;-83
2022/06/24 13:47:33;;;;;;;3.35;2.33;;;29.90;96.50;;;;;;4940475;28;20689;-80
2022/06/24 13:50:17;;;;;;;3.08;2.08;;;30.40;94.90;;;;;;4956035;28;20237;-79
2022/06/24 13:53:03;;;;;;;2.95;2.28;;;30.30;92.80;;;;;;4956650;28;20221;-81
2022/06/24 13:55:47;;;;;;;4.38;2.33;;;30.70;93.80;;;;;;4961158;28;20209;-83
2022/06/24 13:58:35;;;;;;;2.00;1.60;;;31.90;91.00;;;;;;4976484;28;20224;-82
2022/06/24 14:01:20;;;;;;;2.83;2.17;;;32.10;92.00;;;;;;4971671;28;20208;-82
2022/06/24 14:04:07;;;;;;;1.90;1.77;;;31.90;92.80;;;;;;4971569;28;20244;-82
2022/06/24 14:06:51;;;;;;;6.78;3.92;;;31.50;90.10;;;;;;4949165;28;20214;-83
2022/06/24 14:09:39;;;;;;;2.45;2.20;;;30.70;90.00;;;;;;4956912;28;20249;-81
2022/06/24 14:12:23;;;;;;;2.72;2.05;;;30.20;91.30;;;;;;4977296;28;20181;-83
2022/06/24 14:15:11;;;;;;;3.58;2.00;;;30.60;90.90;;;;;;4983662;28;20194;-81
2022/06/24 14:17:56;;;;;;;6.38;2.67;;;31.00;90.50;;;;;;5027416;28;20199;-82
2022/06/24 14:20:41;;;;;;;2.38;2.17;;;30.90;92.40;;;;;;5029123;28;20736;-83
2022/06/24 14:26:21;;;;;;;2.50;1.70;;;31.30;85.70;;;;;;5039309;28;20199;-83
2022/06/24 14:29:06;;;;;;;3.90;1.70;;;31.70;90.00;;;;;;5034108;28;20493;-82
2022/06/24 14:31:50;;;;;;;2.00;1.67;;;31.00;89.20;;;;;;5028635;28;20291;-82
2022/06/24 14:34:36;;;;;;;2.65;2.45;;;31.80;85.10;;;;;;5033095;28;20179;-81
2022/06/24 14:40:25;;;;;;;1.98;1.88;;;30.90;90.20;;;;;;5020961;28;20234;-81
2022/06/24 14:43:09;;;;;;;2.40;2.20;;;31.70;86.80;;;;;;5036295;28;20180;-83
2022/06/24 14:45:54;;;;;;;2.22;2.10;;;30.60;85.30;;;;;;5035471;28;20768;-82